Time;durP1;ratioP1;P1;durP2;ratioP2;P2;SDS_P1;SDS_P2;PMS_P1;PMS_P2;Temp;Humidity;BMP_temperature;BMP_pressure;BME280_temperature;BME280_humidity;BME280_pressure;Samples;Min_cycle;Max_cycle;Signal;HPM_P1;HPM_P2
2021/10/27 00:01:58;;;;;;;23.90;17.40;;;;;;;13.15;53.58;96249.31;4992208;28;20034;-76
2021/10/27 00:04:23;;;;;;;29.85;16.90;;;;;;;13.09;53.72;96256.63;5001875;28;20042;-75
2021/10/27 00:06:49;;;;;;;23.92;16.17;;;;;;;13.03;53.53;96241.78;5011938;28;20101;-76
2021/10/27 00:09:14;;;;;;;20.92;14.60;;;;;;;12.97;53.65;96243.75;5001822;28;20030;-76
2021/10/27 00:11:40;;;;;;;17.88;13.98;;;;;;;13.02;53.73;96249.00;4994372;28;20118;-74
2021/10/27 00:14:06;;;;;;;16.23;12.50;;;;;;;13.00;53.74;96253.06;4991985;28;20513;-76
2021/10/27 00:16:32;;;;;;;21.50;14.90;;;;;;;12.99;53.93;96251.44;4992213;28;20042;-76
2021/10/27 00:18:57;;;;;;;19.48;13.40;;;;;;;12.86;53.91;96245.00;4998100;28;21068;-75
2021/10/27 00:21:22;;;;;;;18.10;13.93;;;;;;;12.91;53.82;96249.47;5008740;28;20022;-76
2021/10/27 00:23:48;;;;;;;23.00;15.18;;;;;;;12.95;53.85;96261.16;4993273;28;20048;-77
2021/10/27 00:26:14;;;;;;;19.05;13.55;;;;;;;12.85;53.77;96251.41;4991986;28;20101;-76
2021/10/27 00:28:39;;;;;;;26.63;16.27;;;;;;;12.88;53.82;96255.38;4991515;28;20424;-76
2021/10/27 00:31:05;;;;;;;19.23;13.35;;;;;;;12.83;53.80;96258.91;4991787;28;20121;-75
2021/10/27 00:33:30;;;;;;;26.58;16.67;;;;;;;12.80;54.11;96246.16;4990962;28;20034;-76
2021/10/27 00:35:56;;;;;;;21.50;14.93;;;;;;;12.80;53.93;96254.16;5005820;28;20029;-75
2021/10/27 00:38:21;;;;;;;24.77;15.98;;;;;;;12.80;53.95;96248.81;4994629;28;20026;-76
2021/10/27 00:40:46;;;;;;;24.73;16.02;;;;;;;12.82;54.11;96261.88;4991213;28;20041;-77
2021/10/27 00:43:12;;;;;;;16.90;13.45;;;;;;;12.71;54.07;96251.34;4991475;28;20122;-77
2021/10/27 00:45:38;;;;;;;18.20;13.70;;;;;;;12.75;54.12;96256.91;4991973;28;20082;-77
2021/10/27 00:48:03;;;;;;;18.38;13.18;;;;;;;12.72;54.03;96262.81;4990045;28;20034;-76
2021/10/27 00:50:31;;;;;;;18.17;13.50;;;;;;;12.74;54.13;96263.31;5004338;28;20510;-76
2021/10/27 00:52:56;;;;;;;15.30;12.43;;;;;;;12.73;54.49;96269.75;5010798;28;20038;-76
2021/10/27 00:55:23;;;;;;;14.45;11.38;;;;;;;12.63;54.33;96254.66;4992666;28;20546;-76
2021/10/27 00:57:49;;;;;;;26.98;15.82;;;;;;;12.67;54.29;96257.56;4991439;28;20504;-77
2021/10/27 01:00:15;;;;;;;26.77;17.13;;;;;;;12.64;54.18;96252.78;4990868;28;20042;-76
2021/10/27 01:02:41;;;;;;;16.20;11.18;;;;;;;12.68;54.05;96257.25;4992700;28;20026;-76
2021/10/27 01:05:07;;;;;;;21.27;15.02;;;;;;;12.66;54.04;96258.66;4990665;28;20046;-76
2021/10/27 01:07:33;;;;;;;11.70;9.52;;;;;;;12.60;54.13;96251.81;4990838;28;20058;-75
2021/10/27 01:09:58;;;;;;;28.60;16.67;;;;;;;12.56;54.22;96250.78;4990779;28;20441;-76
2021/10/27 01:12:23;;;;;;;17.73;13.93;;;;;;;12.53;54.06;96238.00;4990958;28;20030;-76
2021/10/27 01:14:49;;;;;;;16.05;11.40;;;;;;;12.61;53.73;96254.16;4992743;28;20034;-77
2021/10/27 01:17:17;;;;;;;22.90;14.05;;;;;;;12.53;54.15;96243.34;4991029;28;20046;-76
2021/10/27 01:19:51;;;;;;;22.58;15.18;;;;;;;12.56;53.97;96253.44;5003159;28;20420;-76
2021/10/27 01:22:19;;;;;;;22.75;15.00;;;;;;;12.52;54.22;96245.22;4992610;28;20046;-76
2021/10/27 01:24:45;;;;;;;21.75;12.73;;;;;;;12.52;54.44;96252.44;4990644;28;20496;-76
2021/10/27 01:27:11;;;;;;;11.93;10.68;;;;;;;12.45;54.38;96234.91;4990840;28;20117;-76
2021/10/27 01:29:37;;;;;;;15.60;11.73;;;;;;;12.48;54.29;96237.00;4992203;28;20388;-76
2021/10/27 01:32:03;;;;;;;17.00;12.65;;;;;;;12.49;54.16;96246.59;4990555;28;20043;-76
2021/10/27 01:34:29;;;;;;;13.38;11.48;;;;;;;12.42;54.39;96238.16;4997963;28;20428;-76
2021/10/27 01:36:54;;;;;;;10.50;9.50;;;;;;;12.43;54.36;96247.75;4990503;28;20042;-76
2021/10/27 01:39:20;;;;;;;13.80;10.20;;;;;;;12.33;55.02;96252.41;4989868;28;20033;-76
2021/10/27 01:41:45;;;;;;;14.32;11.25;;;;;;;12.37;54.60;96238.22;4993052;28;20050;-79
2021/10/27 01:44:11;;;;;;;13.70;11.27;;;;;;;11.99;56.12;96249.94;4991789;28;20716;-78
2021/10/27 01:46:38;;;;;;;11.15;10.02;;;;;;;11.92;55.64;96228.94;4991923;28;20027;-79
2021/10/27 01:49:06;;;;;;;17.02;12.82;;;;;;;12.32;55.42;96246.28;4991151;28;20631;-79
2021/10/27 01:51:33;;;;;;;16.60;11.93;;;;;;;12.37;54.89;96246.22;4995782;28;20065;-78
2021/10/27 01:53:58;;;;;;;19.48;12.43;;;;;;;12.37;54.59;96246.22;5003884;28;20412;-79
2021/10/27 01:56:25;;;;;;;13.20;9.80;;;;;;;12.39;54.32;96254.75;4993630;28;20018;-79
2021/10/27 01:58:51;;;;;;;18.85;13.85;;;;;;;12.36;54.40;96247.31;4991447;28;20035;-79
2021/10/27 02:01:17;;;;;;;11.02;9.93;;;;;;;12.34;54.27;96244.16;4991578;28;20041;-79
2021/10/27 02:03:43;;;;;;;24.55;15.25;;;;;;;12.33;54.18;96239.88;4991034;28;20048;-78
2021/10/27 02:06:09;;;;;;;24.08;13.95;;;;;;;12.27;54.30;96234.91;4999925;28;20030;-79
2021/10/27 02:08:34;;;;;;;10.23;9.18;;;;;;;12.23;54.43;96229.34;5000422;28;20440;-78
2021/10/27 02:11:00;;;;;;;17.25;14.15;;;;;;;12.28;54.59;96239.16;4990681;28;20066;-79
2021/10/27 02:13:27;;;;;;;16.38;12.45;;;;;;;12.20;54.17;96227.25;4990925;28;20042;-79
2021/10/27 02:15:53;;;;;;;13.93;10.70;;;;;;;12.16;54.13;96231.56;4991442;28;20497;-77
2021/10/27 02:18:18;;;;;;;14.93;12.05;;;;;;;12.12;54.85;96238.56;4989441;28;20113;-79
2021/10/27 02:20:43;;;;;;;13.40;9.80;;;;;;;12.11;54.79;96227.09;5006005;28;20033;-79
2021/10/27 02:23:09;;;;;;;12.75;11.38;;;;;;;12.14;54.86;96234.53;5011017;28;20129;-78
2021/10/27 02:25:34;;;;;;;15.82;12.43;;;;;;;12.11;54.83;96226.31;5009668;28;20052;-78
2021/10/27 02:28:01;;;;;;;19.35;12.98;;;;;;;12.06;54.37;96237.03;5010544;28;20041;-79
2021/10/27 02:30:26;;;;;;;13.88;11.20;;;;;;;12.03;54.56;96240.25;5010171;28;20044;-79
2021/10/27 02:32:51;;;;;;;12.48;10.10;;;;;;;12.06;54.28;96239.72;5010355;28;20660;-74
2021/10/27 02:35:17;;;;;;;14.23;9.20;;;;;;;12.05;54.26;96243.47;5003576;28;20415;-78
2021/10/27 02:37:43;;;;;;;11.38;9.13;;;;;;;12.00;54.51;96238.97;4991023;28;20034;-79
2021/10/27 02:40:09;;;;;;;19.80;12.45;;;;;;;12.02;54.00;96244.81;4990722;28;20050;-78
2021/10/27 02:42:35;;;;;;;15.77;11.45;;;;;;;12.08;54.39;96254.34;4991078;28;20034;-79
2021/10/27 02:45:01;;;;;;;11.82;9.02;;;;;;;11.99;54.16;96233.94;4991072;28;20029;-79
2021/10/27 02:47:26;;;;;;;22.33;13.18;;;;;;;12.00;54.31;96241.66;4992784;28;20637;-79
2021/10/27 02:49:51;;;;;;;18.52;13.95;;;;;;;11.94;54.26;96243.59;4996674;28;20518;-79
2021/10/27 02:52:17;;;;;;;19.75;13.27;;;;;;;11.95;54.11;96247.84;5008697;28;20062;-79
2021/10/27 02:54:42;;;;;;;11.15;9.30;;;;;;;11.93;53.84;96258.00;4990627;28;20093;-79
2021/10/27 02:57:07;;;;;;;16.70;12.45;;;;;;;11.93;54.03;96252.66;4990708;28;20061;-79
2021/10/27 02:59:33;;;;;;;20.10;12.85;;;;;;;11.80;54.06;96237.31;4996323;28;20022;-78
2021/10/27 03:01:59;;;;;;;11.10;9.98;;;;;;;11.85;54.19;96247.16;4994657;28;20565;-79
2021/10/27 03:04:24;;;;;;;13.93;10.25;;;;;;;11.82;54.05;96240.50;4979515;28;20034;-78
2021/10/27 03:06:50;;;;;;;14.82;11.98;;;;;;;11.80;54.09;96249.84;5014108;28;20104;-79
2021/10/27 03:09:15;;;;;;;11.60;10.20;;;;;;;11.84;54.01;96262.38;5013683;28;20046;-79
2021/10/27 03:11:41;;;;;;;10.68;7.75;;;;;;;11.78;54.12;96266.13;5016250;28;20034;-78
2021/10/27 03:14:07;;;;;;;11.25;9.25;;;;;;;11.83;54.20;96262.66;5014331;28;20041;-77
2021/10/27 03:16:32;;;;;;;16.00;11.07;;;;;;;11.75;53.65;96248.03;4996507;28;20030;-78
2021/10/27 03:18:58;;;;;;;16.10;10.27;;;;;;;11.78;53.95;96260.81;5009279;28;20057;-78
2021/10/27 03:21:23;;;;;;;10.27;9.23;;;;;;;11.76;54.38;96262.94;4994218;28;20034;-77
2021/10/27 03:23:48;;;;;;;12.98;9.40;;;;;;;11.78;54.30;96271.47;4996100;28;20113;-78
2021/10/27 03:26:14;;;;;;;12.30;9.77;;;;;;;11.75;54.00;96266.69;4994571;28;20118;-78
2021/10/27 03:28:39;;;;;;;16.23;9.93;;;;;;;11.67;54.30;96267.34;4993493;28;20034;-78
2021/10/27 03:31:04;;;;;;;10.88;8.95;;;;;;;11.60;54.45;96270.31;4994344;28;20560;-78
2021/10/27 03:33:30;;;;;;;10.20;9.20;;;;;;;11.53;54.49;96253.88;4994257;28;20042;-78
2021/10/27 03:35:55;;;;;;;16.67;11.13;;;;;;;11.64;54.76;96268.69;5008328;28;20033;-77
2021/10/27 03:38:21;;;;;;;9.82;8.15;;;;;;;11.54;54.01;96252.78;5015453;28;20049;-79
2021/10/27 03:40:46;;;;;;;9.25;8.00;;;;;;;11.56;54.39;96252.50;5013222;28;20041;-79
2021/10/27 03:43:11;;;;;;;18.80;11.50;;;;;;;11.60;53.95;96257.00;5013418;28;20034;-78
2021/10/27 03:45:37;;;;;;;14.65;10.48;;;;;;;11.62;53.94;96262.06;5013752;28;20042;-79
2021/10/27 03:48:04;;;;;;;16.98;11.48;;;;;;;11.65;54.30;96264.13;5013766;28;20463;-78
2021/10/27 03:50:29;;;;;;;12.57;9.65;;;;;;;11.60;53.80;96254.31;5010730;28;20026;-79
2021/10/27 03:52:54;;;;;;;17.02;11.90;;;;;;;11.58;54.13;96256.50;5013477;28;20133;-78
2021/10/27 03:55:20;;;;;;;11.65;9.55;;;;;;;11.60;53.69;96275.63;5013482;28;20444;-78
2021/10/27 03:57:45;;;;;;;13.55;10.18;;;;;;;11.55;53.63;96258.91;5013689;28;20060;-79
2021/10/27 04:00:11;;;;;;;10.30;8.75;;;;;;;11.53;53.56;96258.41;5012992;28;20070;-79
2021/10/27 04:02:41;;;;;;;15.85;11.10;;;;;;;11.51;54.15;96265.88;5014901;28;20025;-78
2021/10/27 04:05:07;;;;;;;15.52;12.40;;;;;;;11.54;54.13;96273.31;5001058;28;20039;-78
2021/10/27 04:07:36;;;;;;;17.80;10.30;;;;;;;11.47;53.58;96262.22;5013246;28;20026;-78
2021/10/27 04:10:04;;;;;;;16.73;11.40;;;;;;;11.50;53.79;96283.72;5011334;28;20034;-78
2021/10/27 04:12:29;;;;;;;12.73;9.73;;;;;;;11.44;53.71;96275.00;5012935;28;20034;-78
2021/10/27 04:14:54;;;;;;;12.80;10.02;;;;;;;11.42;53.83;96273.72;5012575;28;20033;-78
2021/10/27 04:17:21;;;;;;;13.88;10.55;;;;;;;11.42;54.07;96276.38;5014881;28;20112;-78
2021/10/27 04:19:46;;;;;;;12.85;9.57;;;;;;;11.41;53.69;96275.56;5009029;28;20045;-79
2021/10/27 04:22:12;;;;;;;13.18;10.10;;;;;;;11.34;54.42;96282.28;5012535;28;20038;-78
2021/10/27 04:24:37;;;;;;;18.00;13.48;;;;;;;11.40;54.00;96284.63;5008016;28;20034;-78
2021/10/27 04:27:03;;;;;;;13.05;9.68;;;;;;;11.39;54.45;96291.03;4992980;28;20031;-78
2021/10/27 04:29:28;;;;;;;14.80;10.75;;;;;;;11.37;54.54;96287.88;4994412;28;20030;-78
2021/10/27 04:31:54;;;;;;;11.48;10.07;;;;;;;11.35;54.20;96287.34;4992993;28;20050;-78
2021/10/27 04:34:19;;;;;;;10.63;8.57;;;;;;;11.31;54.27;96288.16;4994158;28;20116;-78
2021/10/27 04:36:45;;;;;;;10.95;9.15;;;;;;;11.37;54.36;96298.53;4998349;28;20121;-78
2021/10/27 04:39:10;;;;;;;17.92;11.95;;;;;;;11.32;54.40;96282.59;4992437;28;20042;-77
2021/10/27 04:41:36;;;;;;;20.13;11.23;;;;;;;11.25;54.10;96278.63;4994618;28;20084;-78
2021/10/27 04:44:01;;;;;;;10.02;8.60;;;;;;;11.18;53.67;96268.31;4992474;28;20030;-79
2021/10/27 04:46:27;;;;;;;16.45;10.68;;;;;;;11.28;54.41;96289.53;4992912;28;20038;-79
2021/10/27 04:48:53;;;;;;;19.15;10.35;;;;;;;11.22;54.50;96274.69;4991824;28;20053;-78
2021/10/27 04:51:18;;;;;;;12.98;9.50;;;;;;;11.19;54.39;96281.34;5009163;28;20057;-79
2021/10/27 04:53:43;;;;;;;9.77;7.85;;;;;;;11.23;54.23;96278.13;5013987;28;20369;-78
2021/10/27 04:56:09;;;;;;;7.90;7.10;;;;;;;11.25;54.21;96289.28;5011921;28;20065;-78
2021/10/27 04:58:34;;;;;;;9.60;8.57;;;;;;;11.25;54.07;96287.44;5010713;28;20037;-78
2021/10/27 05:00:59;;;;;;;12.32;7.57;;;;;;;11.19;54.14;96277.91;5011664;28;20038;-79
2021/10/27 05:03:25;;;;;;;9.30;6.53;;;;;;;11.22;54.45;96293.31;5011600;28;20070;-79
2021/10/27 05:05:54;;;;;;;8.50;6.75;;;;;;;11.24;54.44;96293.03;5003986;28;20092;-80
2021/10/27 05:08:22;;;;;;;7.25;6.55;;;;;;;11.28;54.52;96300.19;5012056;28;20049;-79
2021/10/27 05:10:51;;;;;;;9.18;6.43;;;;;;;11.25;53.94;96290.09;4997507;28;20034;-79
2021/10/27 05:13:19;;;;;;;6.63;6.03;;;;;;;11.24;54.19;96282.38;4991673;28;20042;-78
2021/10/27 05:15:46;;;;;;;13.15;8.25;;;;;;;11.17;54.39;96293.38;4974782;28;20129;-78
2021/10/27 05:18:11;;;;;;;12.65;6.90;;;;;;;11.19;54.02;96294.66;4992639;28;20034;-78
2021/10/27 05:20:36;;;;;;;10.63;7.35;;;;;;;11.18;54.16;96289.63;5004765;28;20736;-78
2021/10/27 05:23:02;;;;;;;9.40;7.00;;;;;;;11.16;53.94;96284.59;4995512;28;20038;-78
2021/10/27 05:25:27;;;;;;;6.13;5.55;;;;;;;11.17;54.24;96293.38;4991850;28;20031;-79
2021/10/27 05:27:53;;;;;;;7.93;6.47;;;;;;;11.24;53.95;96295.69;4991795;28;20038;-79
2021/10/27 05:30:19;;;;;;;8.18;6.65;;;;;;;11.23;54.68;96305.56;4991510;28;20042;-78
2021/10/27 05:32:44;;;;;;;8.10;6.07;;;;;;;11.23;54.16;96297.56;4993581;28;20018;-79
2021/10/27 05:35:10;;;;;;;7.63;6.82;;;;;;;11.20;55.04;96296.25;4992019;28;20050;-78
2021/10/27 05:37:35;;;;;;;11.50;8.07;;;;;;;11.17;54.81;96288.84;5010981;28;20037;-77
2021/10/27 05:40:01;;;;;;;8.82;6.75;;;;;;;11.12;54.19;96280.09;5009775;28;20034;-78
2021/10/27 05:42:28;;;;;;;10.30;7.57;;;;;;;11.14;54.07;96292.03;5011164;28;20038;-79
2021/10/27 05:44:54;;;;;;;11.13;6.30;;;;;;;11.08;54.24;96285.19;5011054;28;20029;-79
2021/10/27 05:47:19;;;;;;;7.47;6.72;;;;;;;11.12;54.83;96299.53;4995723;28;20026;-79
2021/10/27 05:57:28;;;;;;;10.38;7.97;;;;;;;11.22;54.29;96311.97;4991742;28;20045;-79
2021/10/27 05:59:53;;;;;;;8.77;7.97;;;;;;;11.17;54.07;96306.69;4991024;28;20022;-78
2021/10/27 06:02:19;;;;;;;7.75;6.78;;;;;;;11.19;53.60;96312.50;4993308;28;20077;-78
2021/10/27 06:04:44;;;;;;;8.88;5.95;;;;;;;11.22;53.92;96324.50;4990627;28;20861;-78
2021/10/27 06:07:10;;;;;;;6.93;6.22;;;;;;;11.19;54.10;96301.88;4997038;28;20104;-72
2021/10/27 06:09:37;;;;;;;8.00;6.05;;;;;;;11.28;54.51;96313.50;4996274;28;20689;-74
2021/10/27 06:12:05;;;;;;;11.95;7.63;;;;;;;11.38;53.88;96321.41;4988804;28;20650;-73
2021/10/27 06:14:31;;;;;;;13.88;8.00;;;;;;;11.34;53.41;96312.38;4989313;28;20472;-74
2021/10/27 06:16:57;;;;;;;8.80;6.25;;;;;;;11.37;54.30;96314.50;4989072;28;20038;-74
2021/10/27 06:19:23;;;;;;;8.60;5.93;;;;;;;11.31;53.48;96310.31;4988357;28;20101;-74
2021/10/27 06:21:49;;;;;;;7.35;5.45;;;;;;;11.16;54.35;96302.44;4988015;28;20050;-73
2021/10/27 06:24:14;;;;;;;5.90;5.10;;;;;;;11.35;53.95;96313.97;4996215;28;20031;-73
2021/10/27 06:26:40;;;;;;;7.95;5.50;;;;;;;11.52;53.97;96331.44;4989531;28;20057;-73
2021/10/27 06:29:08;;;;;;;9.45;6.20;;;;;;;11.59;53.49;96324.69;4991312;28;20041;-73
2021/10/27 06:32:00;;;;;;;7.25;5.45;;;;;;;11.61;53.89;96324.41;4996797;28;20030;-73
2021/10/27 06:34:32;;;;;;;9.32;6.25;;;;;;;11.77;53.52;96333.84;5005345;28;20037;-73
2021/10/27 06:47:35;;;;;;;9.35;7.35;;;;;;;12.06;53.38;96346.38;4988482;28;20049;-74
2021/10/27 06:50:00;;;;;;;11.85;7.93;;;;;;;12.14;52.91;96340.44;4987448;28;20027;-73
2021/10/27 06:52:25;;;;;;;10.85;7.05;;;;;;;12.18;53.18;96339.59;4996225;28;20125;-73
2021/10/27 06:54:53;;;;;;;8.80;7.80;;;;;;;12.28;53.00;96349.31;4987998;28;20067;-73
2021/10/27 06:57:23;;;;;;;13.50;9.02;;;;;;;12.32;53.03;96345.00;4988611;28;20057;-81
2021/10/27 06:59:50;;;;;;;9.15;7.63;;;;;;;12.36;52.86;96338.03;4990969;28;20468;-71
2021/10/27 07:16:08;;;;;;;10.75;7.75;;;;;;;13.10;52.20;96348.25;4988299;28;20049;-73
2021/10/27 07:18:34;;;;;;;8.60;5.90;;;;;;;13.19;52.19;96349.97;4988248;28;20038;-71
2021/10/27 07:21:00;;;;;;;17.40;8.60;;;;;;;13.22;52.43;96343.28;4987412;28;20035;-68
2021/10/27 07:23:25;;;;;;;10.70;7.78;;;;;;;13.39;52.21;96348.09;4989365;28;20026;-71
2021/10/27 07:25:57;;;;;;;8.48;6.43;;;;;;;13.55;52.19;96352.09;4987181;28;20058;-71
2021/10/27 07:28:28;;;;;;;8.32;6.10;;;;;;;13.66;52.02;96348.16;4987720;28;20463;-70
2021/10/27 07:30:56;;;;;;;10.68;6.38;;;;;;;13.77;51.80;96344.25;4987780;28;20523;-74
2021/10/27 07:33:21;;;;;;;11.52;6.80;;;;;;;13.87;51.78;96345.97;4988216;28;20113;-74
2021/10/27 07:35:52;;;;;;;9.80;6.57;;;;;;;13.99;52.02;96346.25;4990100;28;20113;-76
2021/10/27 07:41:02;;;;;;;7.57;5.88;;;;;;;14.18;51.46;96346.19;5002170;28;20089;-76
2021/10/27 07:43:30;;;;;;;8.70;5.93;;;;;;;14.29;51.40;96344.09;4989072;28;20556;-72
2021/10/27 07:45:56;;;;;;;6.38;4.20;;;;;;;14.33;51.41;96337.06;4975375;28;20045;-80
2021/10/27 07:48:22;;;;;;;7.22;4.00;;;;;;;14.42;50.96;96337.16;4991681;28;20030;-79
2021/10/27 07:50:48;;;;;;;8.30;4.97;;;;;;;14.52;50.91;96345.78;4999571;28;20038;-73
2021/10/27 07:53:14;;;;;;;3.95;3.65;;;;;;;14.59;50.74;96342.72;5002968;28;20408;-83
2021/10/27 07:55:42;;;;;;;4.28;3.88;;;;;;;14.57;50.42;96348.34;4992607;28;20119;-80
2021/10/27 07:58:10;;;;;;;3.45;3.15;;;;;;;14.37;50.66;96332.69;4990751;28;20074;-73
2021/10/27 08:00:35;;;;;;;5.85;3.65;;;;;;;14.70;50.25;96340.63;4990705;28;20047;-74
2021/10/27 08:03:02;;;;;;;5.60;3.90;;;;;;;14.83;50.41;96337.09;4991027;28;20026;-74
2021/10/27 08:05:38;;;;;;;4.60;4.20;;;;;;;14.99;49.92;96348.28;4995846;28;20026;-73
2021/10/27 08:08:04;;;;;;;4.93;3.80;;;;;;;15.00;49.58;96352.56;5003155;28;20045;-73
2021/10/27 08:10:29;;;;;;;4.38;3.78;;;;;;;15.14;50.02;96347.13;4998344;28;20048;-73
2021/10/27 08:12:57;;;;;;;4.72;3.35;;;;;;;15.18;49.18;96345.44;4990640;28;20050;-74
2021/10/27 08:15:22;;;;;;;3.88;3.30;;;;;;;15.07;49.31;96351.03;4991046;28;20030;-74
2021/10/27 08:17:48;;;;;;;4.82;4.13;;;;;;;15.31;49.36;96352.66;4992956;28;20033;-73
2021/10/27 08:20:16;;;;;;;4.50;4.10;;;;;;;15.44;49.43;96346.44;4990365;28;20034;-74
2021/10/27 08:22:44;;;;;;;5.43;3.67;;;;;;;15.57;48.85;96344.78;4990735;28;20618;-79
2021/10/27 08:27:56;;;;;;;5.00;3.70;;;;;;;15.68;49.02;96332.72;4992142;28;20110;-77
2021/10/27 08:30:27;;;;;;;5.55;3.60;;;;;;;15.73;48.80;96337.97;4991533;28;20034;-80
2021/10/27 08:32:54;;;;;;;5.90;3.80;;;;;;;15.73;48.54;96337.19;4991927;28;20022;-76
2021/10/27 08:35:21;;;;;;;9.13;4.40;;;;;;;15.94;48.68;96332.06;4995829;28;20054;-79
2021/10/27 08:37:48;;;;;;;4.50;4.10;;;;;;;16.09;48.56;96342.41;5006553;28;20121;-77
2021/10/27 08:40:20;;;;;;;5.47;4.30;;;;;;;16.22;48.45;96340.72;4991376;28;20046;-78
2021/10/27 08:42:46;;;;;;;4.90;4.28;;;;;;;16.29;48.06;96336.47;4991475;28;20073;-77
2021/10/27 08:45:12;;;;;;;6.28;5.50;;;;;;;16.30;47.89;96321.94;4992077;28;20042;-77
2021/10/27 08:47:40;;;;;;;4.57;4.07;;;;;;;16.47;47.88;96323.09;4993889;28;20022;-78
2021/10/27 08:50:13;;;;;;;6.45;4.57;;;;;;;16.64;47.84;96325.84;4991489;28;20501;-78
2021/10/27 08:52:42;;;;;;;4.85;4.40;;;;;;;16.63;47.30;96325.06;4991647;28;20121;-78
2021/10/27 08:55:11;;;;;;;6.32;4.53;;;;;;;16.74;47.16;96330.94;4991338;28;20709;-79
2021/10/27 08:57:36;;;;;;;5.38;4.85;;;;;;;16.89;47.05;96329.69;4992052;28;20050;-77
2021/10/27 09:00:15;;;;;;;7.18;4.10;;;;;;;16.77;47.00;96329.50;4991614;28;20031;-78
2021/10/27 09:05:32;;;;;;;6.47;4.45;;;;;;;17.01;46.40;96323.69;4991548;28;20035;-78
2021/10/27 10:04:13;;;;;;;9.90;8.45;;;;;;;17.37;45.71;96307.22;5011176;28;20045;-80
2021/10/27 10:06:40;;;;;;;12.07;7.68;;;;;;;17.81;44.74;96297.97;5003909;28;20046;-78
2021/10/27 10:09:07;;;;;;;8.82;7.68;;;;;;;17.90;44.38;96297.94;5010041;28;20041;-78
2021/10/27 10:11:34;;;;;;;11.20;8.02;;;;;;;18.06;44.58;96293.59;4993090;28;20014;-81
2021/10/27 10:14:07;;;;;;;9.27;8.38;;;;;;;17.89;45.00;96299.84;4991211;28;20125;-81
2021/10/27 10:16:41;;;;;;;12.40;7.85;;;;;;;17.79;45.47;96296.72;4990797;28;20385;-80
2021/10/27 10:19:12;;;;;;;11.23;8.43;;;;;;;18.16;44.44;96298.63;4990174;28;20039;-77
2021/10/27 10:21:41;;;;;;;9.80;7.85;;;;;;;18.23;44.64;96298.13;4994021;28;20056;-75
2021/10/27 10:26:58;;;;;;;11.93;8.88;;;;;;;18.10;44.96;96289.13;4992327;28;20050;-80
2021/10/27 10:30:00;;;;;;;9.70;7.43;;;;;;;17.42;45.73;96293.59;4990503;28;20051;-77
2021/10/27 10:32:26;;;;;;;9.93;7.72;;;;;;;17.72;45.25;96286.41;4990401;28;20053;-76
2021/10/27 10:34:56;;;;;;;12.43;8.07;;;;;;;17.47;45.21;96293.44;4989025;28;20381;-77
2021/10/27 10:38:00;;;;;;;11.82;8.20;;;;;;;17.56;45.85;96288.06;4999576;28;20033;-79
2021/10/27 10:40:44;;;;;;;8.50;7.60;;;;;;;17.36;46.17;96289.50;4988230;28;20039;-76
2021/10/27 10:45:44;;;;;;;9.02;8.15;;;;;;;17.76;44.86;96279.31;4990660;28;20042;-78
2021/10/27 11:37:53;;;;;;;6.50;5.88;;;;;;;18.55;42.69;96223.13;4993272;28;20061;-77
2021/10/27 11:40:30;;;;;;;6.55;5.40;;;;;;;18.95;41.73;96221.56;4993945;28;20042;-78
2021/10/27 11:42:59;;;;;;;8.90;5.72;;;;;;;18.70;42.53;96223.38;4993001;28;20520;-79
2021/10/27 11:48:04;;;;;;;13.38;6.10;;;;;;;18.94;41.84;96220.00;4993902;28;20042;-80
2021/10/27 11:50:38;;;;;;;7.25;5.20;;;;;;;18.55;42.55;96205.06;4995025;28;20560;-80
2021/10/27 11:53:06;;;;;;;5.63;5.13;;;;;;;18.99;42.02;96205.53;4991671;28;20097;-77
2021/10/27 11:55:33;;;;;;;6.90;5.75;;;;;;;18.99;41.99;96191.22;4992905;28;20034;-76
2021/10/27 11:58:00;;;;;;;8.73;5.70;;;;;;;19.00;41.78;96199.00;4992761;28;20582;-77
2021/10/27 12:00:39;;;;;;;6.15;5.55;;;;;;;18.34;42.94;96194.28;4993197;28;20488;-78
2021/10/27 12:03:10;;;;;;;8.57;5.63;;;;;;;18.86;42.68;96190.41;4992776;28;20053;-79
2021/10/27 12:05:52;;;;;;;6.23;5.13;;;;;;;18.72;42.32;96179.91;4994891;28;20381;-78
2021/10/27 12:11:11;;;;;;;8.15;5.07;;;;;;;19.16;41.99;96177.59;4991763;28;20015;-76
2021/10/27 12:16:38;;;;;;;6.00;4.80;;;;;;;19.56;40.55;96168.91;4992564;28;20502;-77
2021/10/27 12:19:07;;;;;;;4.47;4.10;;;;;;;19.49;40.83;96162.13;4991737;28;20046;-76
2021/10/27 12:21:35;;;;;;;5.60;5.10;;;;;;;19.24;40.89;96163.22;4991569;28;20054;-77
2021/10/27 12:24:02;;;;;;;6.10;5.30;;;;;;;19.52;40.66;96159.91;5007375;28;20021;-77
2021/10/27 12:26:40;;;;;;;6.07;5.22;;;;;;;19.34;41.11;96162.78;5002246;28;20018;-76
2021/10/27 12:29:16;;;;;;;8.85;6.57;;;;;;;18.66;43.41;96165.81;4974327;28;20042;-77
2021/10/27 12:31:43;;;;;;;7.13;5.43;;;;;;;19.23;42.25;96150.84;4990794;28;20034;-79
2021/10/27 12:34:43;;;;;;;6.30;5.70;;;;;;;19.05;42.58;96152.19;4991942;28;20129;-76
2021/10/27 12:37:21;;;;;;;5.90;5.32;;;;;;;19.17;42.51;96146.81;5000035;28;20038;-76
2021/10/27 12:39:47;;;;;;;6.65;5.22;;;;;;;18.75;42.98;96149.59;4997015;28;20034;-76
2021/10/27 12:42:14;;;;;;;6.95;5.55;;;;;;;19.03;42.63;96141.72;4991684;28;20042;-77
2021/10/27 12:44:51;;;;;;;5.97;5.47;;;;;;;18.56;43.40;96138.50;4993807;28;20033;-78
2021/10/27 12:47:30;;;;;;;8.38;5.57;;;;;;;18.77;43.14;96144.66;4992544;28;20042;-77
2021/10/27 12:50:18;;;;;;;6.20;5.70;;;;;;;17.97;44.43;96141.31;4991651;28;20043;-78
2021/10/27 12:52:55;;;;;;;6.00;5.10;;;;;;;18.43;43.27;96141.13;4991058;28;20097;-78
2021/10/27 12:55:26;;;;;;;6.22;5.70;;;;;;;18.92;43.19;96138.66;4991530;28;20046;-77
2021/10/27 12:58:11;;;;;;;8.52;7.55;;;;;;;19.01;43.27;96130.47;4991855;28;20506;-78
2021/10/27 13:08:52;;;;;;;6.20;5.60;;;;;;;19.60;42.80;96126.63;4940729;28;20050;-73
2021/10/27 13:11:35;;;;;;;7.63;6.78;;;;;;;19.42;42.84;96134.13;4991144;28;20125;-76
2021/10/27 13:21:31;;;;;;;9.65;7.22;;;;;;;19.07;44.71;96117.56;4990528;28;20065;-76
2021/10/27 13:31:52;;;;;;;8.93;7.03;;;;;;;18.48;45.66;96105.13;4990656;28;20053;-77
2021/10/27 13:34:19;;;;;;;7.53;6.47;;;;;;;18.83;45.46;96104.81;4990223;28;20042;-75
2021/10/27 13:36:44;;;;;;;7.60;6.90;;;;;;;18.50;45.80;96096.72;4989952;28;20042;-78
2021/10/27 13:39:10;;;;;;;7.72;6.90;;;;;;;18.49;45.94;96095.94;4990076;28;20028;-78
2021/10/27 13:41:37;;;;;;;8.10;7.32;;;;;;;18.83;45.42;96092.13;5012113;28;20438;-76
2021/10/27 13:44:26;;;;;;;8.18;7.18;;;;;;;19.09;44.86;96089.16;5008919;28;20448;-75
2021/10/27 13:47:03;;;;;;;7.10;6.40;;;;;;;19.11;45.05;96086.91;5010035;28;20479;-75
2021/10/27 13:49:47;;;;;;;7.45;6.60;;;;;;;18.82;45.72;96079.75;5009520;28;20042;-76
2021/10/27 13:57:56;;;;;;;7.35;6.72;;;;;;;19.12;44.56;96085.00;5009959;28;20045;-75
2021/10/27 14:08:34;;;;;;;7.32;6.63;;;;;;;19.13;43.98;96073.06;4998580;28;20045;-76
2021/10/27 14:13:59;;;;;;;6.88;6.25;;;;;;;19.08;44.17;96055.19;4981543;28;20034;-76
2021/10/27 14:17:05;;;;;;;7.13;6.20;;;;;;;18.44;45.67;96061.09;4989440;28;20034;-76
2021/10/27 14:47:54;;;;;;;7.68;6.40;;;;;;;18.03;45.50;96068.09;5011268;28;20036;-76
2021/10/27 15:19:51;;;;;;;11.00;8.48;;;;;;;17.91;46.31;96062.66;5010468;28;20091;-74
2021/10/27 15:32:35;;;;;;;11.43;10.23;;;;;;;18.02;46.96;96060.38;4990318;28;20033;-75
2021/10/27 15:50:52;;;;;;;14.95;13.48;;;;;;;17.56;49.54;96064.78;4989282;28;20745;-74
2021/10/27 15:53:18;;;;;;;16.85;14.80;;;;;;;17.60;49.58;96061.06;5007481;28;20072;-74
2021/10/27 15:55:44;;;;;;;16.00;14.63;;;;;;;17.74;49.30;96065.47;5001164;28;20463;-74
2021/10/27 15:58:09;;;;;;;16.35;14.75;;;;;;;17.73;49.28;96058.50;5008387;28;20095;-73
2021/10/27 16:00:39;;;;;;;21.35;17.17;;;;;;;17.83;48.96;96058.13;5008786;28;20069;-75
2021/10/27 16:03:06;;;;;;;18.80;16.85;;;;;;;17.60;49.69;96055.69;5009271;28;20033;-74
2021/10/27 16:05:32;;;;;;;24.73;19.45;;;;;;;17.38;50.35;96050.63;5010814;28;20022;-73
2021/10/27 16:07:57;;;;;;;20.80;18.83;;;;;;;17.06;51.39;96058.19;5009650;28;20030;-74
2021/10/27 16:10:23;;;;;;;25.90;20.17;;;;;;;16.98;51.98;96056.31;5004003;28;20080;-74
2021/10/27 16:12:49;;;;;;;28.80;22.13;;;;;;;16.90;52.10;96054.47;5012345;28;20037;-74
2021/10/27 16:15:26;;;;;;;23.00;20.13;;;;;;;16.87;52.34;96055.91;5012593;28;20394;-73